Time;durP1;ratioP1;P1;durP2;ratioP2;P2;SDS_P1;SDS_P2;PMS_P1;PMS_P2;Temp;Humidity;BMP_temperature;BMP_pressure;BME280_temperature;BME280_humidity;BME280_pressure;Samples;Min_cycle;Max_cycle;Signal;HPM_P1;HPM_P2
2022/12/16 00:01:12;;;;;;;46.13;33.60;;;-0.60;99.90;;;;;;5015826;28;20083;-66
2022/12/16 00:03:39;;;;;;;46.50;32.90;;;-0.60;99.90;;;;;;5020383;28;20072;-66
2022/12/16 00:06:07;;;;;;;49.75;33.22;;;-0.60;99.90;;;;;;5020967;28;20049;-66
2022/12/16 00:08:35;;;;;;;46.20;32.42;;;-0.50;99.90;;;;;;5014724;28;20127;-66
2022/12/16 00:11:01;;;;;;;43.28;31.90;;;-0.50;99.90;;;;;;5021531;28;20058;-66
2022/12/16 00:13:29;;;;;;;46.70;34.35;;;-0.50;99.90;;;;;;5020935;28;20190;-66
2022/12/16 00:15:55;;;;;;;47.65;32.92;;;-0.40;99.90;;;;;;5016189;28;20052;-66
2022/12/16 00:18:21;;;;;;;48.63;33.75;;;-0.40;99.90;;;;;;5018225;28;20434;-66
2022/12/16 00:20:48;;;;;;;44.20;33.83;;;-0.50;99.90;;;;;;5018706;28;20050;-66
2022/12/16 00:23:14;;;;;;;46.25;33.25;;;-0.40;99.90;;;;;;5016631;28;20046;-66
2022/12/16 00:25:42;;;;;;;44.67;31.90;;;-0.40;99.90;;;;;;5016693;28;20038;-66
2022/12/16 00:28:08;;;;;;;46.83;32.75;;;-0.30;99.90;;;;;;5017505;28;20486;-66
2022/12/16 00:30:34;;;;;;;45.38;33.55;;;-0.30;99.90;;;;;;5021277;28;20057;-66
2022/12/16 00:32:59;;;;;;;46.60;32.35;;;-0.30;99.90;;;;;;5020217;28;20061;-66
2022/12/16 00:35:25;;;;;;;44.00;32.35;;;-0.30;99.90;;;;;;5020465;28;20092;-66
2022/12/16 00:37:51;;;;;;;45.35;31.60;;;-0.30;99.90;;;;;;5023923;28;20637;-66
2022/12/16 00:40:16;;;;;;;45.08;31.58;;;-0.30;99.90;;;;;;5016736;28;20052;-66
2022/12/16 00:42:42;;;;;;;43.47;31.17;;;-0.30;99.90;;;;;;5018653;28;20069;-66
2022/12/16 00:45:08;;;;;;;43.47;32.15;;;-0.30;99.90;;;;;;5016323;28;20041;-66
2022/12/16 00:47:34;;;;;;;45.60;31.75;;;-0.30;99.90;;;;;;5016364;28;20100;-66
2022/12/16 00:49:59;;;;;;;42.13;31.23;;;-0.30;99.90;;;;;;5018133;28;20052;-66
2022/12/16 00:52:25;;;;;;;45.75;32.10;;;-0.30;99.90;;;;;;5020914;28;20041;-66
2022/12/16 00:54:51;;;;;;;46.22;31.90;;;-0.30;99.90;;;;;;5018048;28;20044;-66
2022/12/16 00:57:16;;;;;;;42.22;31.13;;;-0.40;99.90;;;;;;5033057;28;20458;-66
2022/12/16 00:59:42;;;;;;;41.53;30.55;;;-0.30;99.90;;;;;;5018736;28;20366;-66
2022/12/16 01:02:09;;;;;;;43.53;31.75;;;-0.40;99.90;;;;;;5017881;28;20038;-66
2022/12/16 01:04:35;;;;;;;40.25;31.38;;;-0.40;99.90;;;;;;5016315;28;20111;-66
2022/12/16 01:07:01;;;;;;;42.38;31.73;;;-0.40;99.90;;;;;;5022992;28;20037;-66
2022/12/16 01:09:27;;;;;;;40.72;30.70;;;-0.40;99.90;;;;;;5015002;28;20374;-66
2022/12/16 01:11:53;;;;;;;42.53;30.40;;;-0.40;99.90;;;;;;5021029;28;20696;-66
2022/12/16 01:14:18;;;;;;;43.58;31.88;;;-0.40;99.90;;;;;;5018835;28;20091;-66
2022/12/16 01:16:44;;;;;;;45.55;32.45;;;-0.40;99.90;;;;;;5021144;28;20116;-66
2022/12/16 01:19:10;;;;;;;44.90;32.95;;;-0.40;99.90;;;;;;5018887;28;20056;-66
2022/12/16 01:21:37;;;;;;;48.20;31.92;;;-0.40;99.90;;;;;;5022680;28;20034;-66
2022/12/16 01:24:03;;;;;;;43.45;32.50;;;-0.40;99.90;;;;;;5016942;28;20050;-66
2022/12/16 01:26:28;;;;;;;43.90;31.98;;;-0.50;99.90;;;;;;5018482;28;20055;-66
2022/12/16 01:28:54;;;;;;;46.63;33.55;;;-0.40;99.90;;;;;;5017921;28;20045;-66
2022/12/16 01:31:21;;;;;;;48.33;33.03;;;-0.40;99.90;;;;;;5015531;28;20056;-66
2022/12/16 01:33:47;;;;;;;47.20;31.92;;;-0.40;99.90;;;;;;5017405;28;20033;-66
2022/12/16 01:36:12;;;;;;;43.33;32.67;;;-0.40;99.90;;;;;;5019935;28;20034;-66
2022/12/16 01:38:43;;;;;;;49.28;32.45;;;-0.40;99.90;;;;;;5019990;28;20529;-66
2022/12/16 01:41:10;;;;;;;43.67;31.63;;;-0.40;99.90;;;;;;5013643;28;20033;-66
2022/12/16 01:43:38;;;;;;;45.85;32.22;;;-0.40;99.90;;;;;;5018932;28;20169;-66
2022/12/16 01:46:13;;;;;;;44.53;32.17;;;-0.40;99.90;;;;;;5014602;28;20488;-66
2022/12/16 01:48:44;;;;;;;41.60;30.52;;;-0.30;99.90;;;;;;5018262;28;20115;-66
2022/12/16 01:51:22;;;;;;;42.35;31.15;;;-0.30;99.90;;;;;;5013123;28;20046;-66
2022/12/16 01:53:52;;;;;;;47.83;33.10;;;-0.30;99.90;;;;;;5020270;28;20069;-66
2022/12/16 01:56:20;;;;;;;44.33;33.10;;;-0.30;99.90;;;;;;5014056;28;20050;-66
2022/12/16 01:58:46;;;;;;;44.25;32.50;;;-0.30;99.90;;;;;;5039070;28;20041;-66
2022/12/16 02:01:14;;;;;;;46.05;32.30;;;-0.30;99.90;;;;;;5014488;28;20398;-66
2022/12/16 02:03:41;;;;;;;43.67;32.58;;;-0.30;99.90;;;;;;5016149;28;20089;-66
2022/12/16 02:06:07;;;;;;;42.50;31.70;;;-0.30;99.90;;;;;;5017879;28;20056;-66
2022/12/16 02:08:33;;;;;;;43.72;31.83;;;-0.30;99.90;;;;;;5016659;28;20401;-66
2022/12/16 02:11:24;;;;;;;42.80;31.27;;;-0.20;99.90;;;;;;5015586;28;20046;-66
2022/12/16 02:14:00;;;;;;;49.75;32.42;;;-0.30;99.90;;;;;;5017013;28;20071;-66
2022/12/16 02:16:31;;;;;;;48.03;33.78;;;-0.30;99.90;;;;;;5007991;28;20474;-66
2022/12/16 02:19:15;;;;;;;47.85;34.78;;;-0.30;99.90;;;;;;5016074;28;20037;-66
2022/12/16 02:21:59;;;;;;;50.17;33.85;;;-0.30;99.90;;;;;;5017273;28;20072;-66
2022/12/16 02:24:31;;;;;;;47.55;32.55;;;-0.30;99.90;;;;;;5020404;28;20519;-66
2022/12/16 02:27:21;;;;;;;46.10;32.13;;;-0.30;99.90;;;;;;5021409;28;20584;-66
2022/12/16 02:30:02;;;;;;;44.63;31.80;;;-0.30;99.90;;;;;;5024433;28;20600;-66
2022/12/16 02:32:57;;;;;;;42.85;31.27;;;-0.30;99.90;;;;;;5018344;28;20037;-66
2022/12/16 02:36:16;;;;;;;43.22;30.60;;;-0.30;99.90;;;;;;5019913;28;20385;-66
2022/12/16 02:39:09;;;;;;;41.78;30.95;;;-0.30;99.90;;;;;;4978855;28;20391;-66
2022/12/16 02:41:40;;;;;;;44.35;30.88;;;-0.30;99.90;;;;;;5019922;28;20141;-66
2022/12/16 02:44:09;;;;;;;44.35;29.90;;;-0.30;99.90;;;;;;5019668;28;20081;-66
2022/12/16 02:46:40;;;;;;;43.05;30.58;;;-0.30;99.90;;;;;;5015955;28;20149;-66
2022/12/16 02:49:26;;;;;;;48.63;32.10;;;-0.20;99.90;;;;;;5019402;28;20040;-66
2022/12/16 02:51:52;;;;;;;42.63;30.30;;;-0.20;99.90;;;;;;5014135;28;20046;-67
2022/12/16 02:54:18;;;;;;;41.10;30.10;;;-0.20;99.90;;;;;;5019594;28;20303;-66
2022/12/16 02:57:17;;;;;;;44.88;30.63;;;-0.20;99.90;;;;;;5022527;28;20474;-66
2022/12/16 02:59:54;;;;;;;43.80;29.58;;;-0.20;99.90;;;;;;5023997;28;20347;-66
2022/12/16 03:02:44;;;;;;;41.97;29.77;;;-0.10;99.90;;;;;;5018685;28;20038;-66
2022/12/16 03:05:17;;;;;;;39.83;27.80;;;-0.10;99.90;;;;;;5021269;28;20058;-66
2022/12/16 03:07:45;;;;;;;43.85;29.02;;;-0.10;99.90;;;;;;5021022;28;20572;-66
2022/12/16 03:10:17;;;;;;;41.50;28.98;;;-0.10;99.90;;;;;;5019311;28;20514;-66
2022/12/16 03:12:44;;;;;;;41.72;29.67;;;-0.10;99.90;;;;;;5020958;28;20087;-66
2022/12/16 03:15:14;;;;;;;41.05;29.98;;;-0.10;99.90;;;;;;5017758;28;20056;-66
2022/12/16 03:17:41;;;;;;;41.33;29.48;;;0.00;99.90;;;;;;5019369;28;20069;-66
2022/12/16 03:20:25;;;;;;;42.58;30.33;;;-0.10;99.90;;;;;;5021964;28;20409;-66
2022/12/16 03:22:53;;;;;;;39.47;28.88;;;-0.10;99.90;;;;;;5018761;28;20128;-66
2022/12/16 03:25:21;;;;;;;45.75;29.88;;;0.00;99.90;;;;;;5023188;28;20041;-66
2022/12/16 03:27:59;;;;;;;39.67;27.83;;;-0.10;99.90;;;;;;5020748;28;20037;-66
2022/12/16 03:30:31;;;;;;;41.55;29.70;;;-0.10;99.90;;;;;;5015255;28;20057;-66
2022/12/16 03:33:15;;;;;;;39.30;29.30;;;0.00;99.90;;;;;;5021512;28;20092;-66
2022/12/16 03:35:49;;;;;;;39.58;28.60;;;0.00;99.90;;;;;;5018900;28;20049;-66
2022/12/16 03:38:18;;;;;;;39.78;27.27;;;0.00;99.90;;;;;;5018420;28;20080;-66
2022/12/16 03:40:44;;;;;;;35.83;27.52;;;0.00;99.90;;;;;;5019350;28;20544;-66
2022/12/16 03:43:15;;;;;;;39.08;26.83;;;0.10;99.90;;;;;;5019032;28;20080;-66
2022/12/16 03:45:44;;;;;;;36.17;26.25;;;0.10;99.90;;;;;;5014673;28;20029;-66
2022/12/16 03:48:12;;;;;;;35.35;24.52;;;0.10;99.90;;;;;;5020802;28;20111;-66
2022/12/16 03:50:38;;;;;;;35.28;25.73;;;0.10;99.90;;;;;;5019119;28;20038;-66
2022/12/16 03:53:05;;;;;;;33.13;24.10;;;0.10;99.90;;;;;;5016168;28;20038;-66
2022/12/16 03:55:31;;;;;;;33.13;24.70;;;0.10;99.90;;;;;;5018478;28;20231;-66
2022/12/16 03:57:57;;;;;;;33.92;23.58;;;0.10;99.90;;;;;;5020141;28;20393;-66
2022/12/16 04:00:24;;;;;;;30.75;22.92;;;0.10;99.90;;;;;;5015326;28;20045;-66
2022/12/16 04:02:50;;;;;;;30.52;23.02;;;0.20;99.90;;;;;;5021058;28;20034;-66
2022/12/16 04:05:16;;;;;;;29.00;22.40;;;0.10;99.90;;;;;;5012788;28;20506;-65
2022/12/16 04:07:42;;;;;;;27.67;21.63;;;0.10;99.90;;;;;;5019921;28;20041;-66
2022/12/16 04:10:08;;;;;;;28.42;21.67;;;0.20;99.90;;;;;;5018384;28;20517;-66
2022/12/16 04:29:18;;;;;;;27.77;20.17;;;0.20;99.90;;;;;;5017845;28;20165;-66
2022/12/16 04:31:44;;;;;;;27.80;19.27;;;0.10;99.90;;;;;;5017768;28;20050;-66
2022/12/16 04:34:25;;;;;;;22.88;17.08;;;0.10;99.90;;;;;;5015461;28;20038;-65
